Hilltop, Minnesota
Current Conditions -  °F | °C
As of 8:53 AM on Wednesday 26 Nov 2014 (Local Time) from KMIC Reporting Station
Light Snow Light Snow  
Wind Chill: 17°   Ceiling: 2300
Heat Index: 24°   Visibility: 1.2mi
Dew Point: 19°   Wind: 6mph
Humidity: 81%   Direction: 40°NE
Pressure: 30.13"   Gusts: NA
Location:  45.0516°N, 93.2549°W
Report Text: KMIC 261453Z 04005KT 1 1/4SM -SN OVC023 M04/M07 A3013 RMK AO2 SLP218 P0000 60000 T10441072 51028
Loading
Personal Weather Stations






























Interactive Weather Map New forecast layout! Learn more

10-Day Weather Forecast

Advertisements
Track Severe Weather on mobile